createdAt,value
2022-09-14T00:01:27.159Z,100.00
2022-09-14T00:04:00.166Z,100.00
2022-09-14T00:06:28.574Z,100.00
2022-09-14T00:08:58.231Z,100.00
2022-09-14T00:11:28.157Z,100.00
2022-09-14T00:13:57.655Z,100.00
2022-09-14T00:16:28.209Z,100.00
2022-09-14T00:18:57.915Z,100.00
2022-09-14T00:21:25.284Z,100.00
2022-09-14T00:23:52.081Z,100.00
2022-09-14T00:26:22.224Z,100.00
2022-09-14T00:28:52.357Z,100.00
2022-09-14T00:31:20.469Z,100.00
2022-09-14T00:33:49.362Z,100.00
2022-09-14T00:36:22.670Z,100.00
2022-09-14T00:38:50.480Z,100.00
2022-09-14T00:41:20.280Z,100.00
2022-09-14T00:44:04.186Z,100.00
2022-09-14T00:46:42.419Z,100.00
2022-09-14T00:49:15.836Z,100.00
2022-09-14T00:52:04.751Z,100.00
2022-09-14T00:54:31.725Z,100.00
2022-09-14T00:57:02.464Z,100.00
2022-09-14T00:59:32.796Z,100.00
2022-09-14T01:01:59.687Z,100.00
2022-09-14T01:04:26.787Z,100.00
2022-09-14T01:07:06.729Z,100.00
2022-09-14T01:10:07.697Z,100.00
2022-09-14T01:12:55.692Z,100.00
2022-09-14T01:15:43.574Z,100.00
2022-09-14T01:18:32.891Z,100.00
2022-09-14T01:21:12.474Z,100.00
2022-09-14T01:23:49.350Z,100.00
2022-09-14T01:26:33.227Z,100.00
2022-09-14T01:29:09.026Z,100.00
2022-09-14T01:31:59.810Z,100.00
2022-09-14T01:34:48.328Z,100.00
2022-09-14T01:37:21.300Z,100.00
2022-09-14T01:39:54.049Z,100.00
2022-09-14T01:42:24.618Z,100.00
2022-09-14T01:44:56.921Z,100.00
2022-09-14T01:47:35.639Z,100.00
2022-09-14T01:50:15.195Z,100.00
2022-09-14T01:52:49.925Z,100.00
2022-09-14T01:55:25.600Z,100.00
2022-09-14T01:57:59.597Z,100.00
2022-09-14T02:00:27.257Z,100.00
2022-09-14T02:03:04.839Z,100.00
2022-09-14T02:05:40.547Z,100.00
2022-09-14T02:08:08.096Z,100.00
2022-09-14T02:10:35.503Z,100.00
2022-09-14T02:13:02.469Z,100.00
2022-09-14T02:15:29.426Z,100.00
2022-09-14T02:17:56.270Z,100.00
2022-09-14T02:20:48.035Z,100.00
2022-09-14T02:23:14.827Z,100.00
2022-09-14T02:25:41.636Z,100.00
2022-09-14T02:28:09.149Z,100.00
2022-09-14T02:31:09.999Z,100.00
2022-09-14T02:34:00.583Z,100.00
2022-09-14T02:36:39.441Z,100.00
2022-09-14T02:39:26.171Z,100.00
2022-09-14T02:42:30.527Z,100.00
2022-09-14T02:45:26.443Z,100.00
2022-09-14T02:48:06.171Z,100.00
2022-09-14T02:50:57.627Z,100.00
2022-09-14T02:53:30.544Z,100.00
2022-09-14T02:56:01.489Z,100.00
2022-09-14T02:58:37.656Z,100.00
2022-09-14T03:01:06.586Z,100.00
2022-09-14T03:03:35.580Z,100.00
2022-09-14T03:06:02.894Z,100.00
2022-09-14T03:08:30.428Z,100.00
2022-09-14T03:10:57.558Z,100.00
2022-09-14T03:13:24.773Z,100.00
2022-09-14T03:15:51.851Z,100.00
2022-09-14T03:18:19.166Z,100.00
2022-09-14T03:20:46.142Z,100.00
2022-09-14T03:23:13.659Z,100.00
2022-09-14T03:25:43.359Z,100.00
2022-09-14T03:28:11.640Z,100.00
2022-09-14T03:30:38.473Z,100.00
2022-09-14T03:33:05.969Z,100.00
2022-09-14T03:35:33.516Z,100.00
2022-09-14T03:38:03.074Z,100.00
2022-09-14T03:40:30.044Z,100.00
2022-09-14T03:42:57.239Z,100.00
2022-09-14T03:45:24.374Z,100.00
2022-09-14T03:47:51.177Z,100.00
2022-09-14T03:50:19.149Z,100.00
2022-09-14T03:52:45.992Z,100.00
2022-09-14T03:55:12.976Z,100.00
2022-09-14T03:57:39.782Z,100.00
2022-09-14T04:00:07.764Z,100.00
2022-09-14T04:02:41.110Z,100.00
2022-09-14T04:05:08.490Z,100.00
2022-09-14T04:07:35.774Z,100.00
2022-09-14T04:10:02.886Z,100.00
2022-09-14T04:12:33.673Z,100.00
2022-09-14T04:15:00.401Z,100.00
2022-09-14T04:17:28.932Z,100.00
2022-09-14T04:19:55.672Z,100.00
2022-09-14T04:22:22.625Z,100.00
2022-09-14T04:24:49.401Z,100.00
2022-09-14T04:27:16.182Z,100.00
2022-09-14T04:29:43.027Z,100.00
2022-09-14T04:32:10.100Z,100.00
2022-09-14T04:34:36.959Z,100.00
2022-09-14T04:37:04.574Z,100.00
2022-09-14T04:39:31.357Z,100.00
2022-09-14T04:41:58.230Z,100.00
2022-09-14T04:44:25.153Z,100.00
2022-09-14T04:46:52.345Z,100.00
2022-09-14T04:49:21.512Z,100.00
2022-09-14T04:51:48.650Z,100.00
2022-09-14T04:54:17.505Z,100.00
2022-09-14T04:56:45.154Z,100.00
2022-09-14T04:59:12.609Z,100.00
2022-09-14T05:01:41.749Z,100.00
2022-09-14T05:04:09.985Z,100.00
2022-09-14T05:06:39.430Z,100.00
2022-09-14T05:09:13.162Z,100.00
2022-09-14T05:11:40.953Z,100.00
2022-09-14T05:14:09.700Z,100.00
2022-09-14T05:16:38.135Z,100.00
2022-09-14T05:19:07.858Z,100.00
2022-09-14T05:21:36.210Z,100.00
2022-09-14T05:24:05.700Z,100.00
2022-09-14T05:26:32.659Z,100.00
2022-09-14T05:29:01.397Z,100.00
2022-09-14T05:31:29.231Z,100.00
2022-09-14T05:33:56.078Z,100.00
2022-09-14T05:36:23.176Z,100.00
2022-09-14T05:38:50.559Z,100.00
2022-09-14T05:41:17.512Z,100.00
2022-09-14T05:43:44.571Z,100.00
2022-09-14T05:46:17.640Z,100.00
2022-09-14T05:48:44.509Z,100.00
2022-09-14T05:51:14.510Z,100.00
2022-09-14T05:53:41.631Z,100.00
2022-09-14T05:56:12.187Z,100.00
2022-09-14T05:58:40.829Z,100.00
2022-09-14T06:01:10.036Z,100.00
2022-09-14T06:03:37.210Z,100.00
2022-09-14T06:06:05.646Z,100.00
2022-09-14T06:08:32.790Z,100.00
2022-09-14T06:11:07.845Z,100.00
2022-09-14T06:13:35.405Z,100.00
2022-09-14T06:16:07.372Z,100.00
2022-09-14T06:18:36.001Z,100.00
2022-09-14T06:21:04.094Z,100.00
2022-09-14T06:23:31.938Z,100.00
2022-09-14T06:26:01.116Z,100.00
2022-09-14T06:28:29.304Z,100.00
2022-09-14T06:30:56.691Z,100.00
2022-09-14T06:33:24.829Z,100.00
2022-09-14T06:36:12.581Z,100.00
2022-09-14T06:38:41.049Z,100.00
2022-09-14T06:41:09.913Z,100.00
2022-09-14T06:43:40.514Z,100.00
2022-09-14T06:46:13.183Z,100.00
2022-09-14T06:48:48.996Z,100.00
2022-09-14T06:51:36.092Z,100.00
2022-09-14T06:54:04.430Z,100.00
2022-09-14T06:56:33.400Z,100.00
2022-09-14T06:59:01.020Z,100.00
2022-09-14T07:01:29.921Z,100.00
2022-09-14T07:03:58.133Z,100.00
2022-09-14T07:06:27.246Z,100.00
2022-09-14T07:08:54.530Z,100.00
2022-09-14T07:11:26.939Z,100.00
2022-09-14T07:13:58.759Z,100.00
2022-09-14T07:16:27.039Z,100.00
2022-09-14T07:18:58.379Z,100.00
2022-09-14T07:21:26.265Z,100.00
2022-09-14T07:23:53.504Z,100.00
2022-09-14T07:26:22.842Z,100.00
2022-09-14T07:28:53.513Z,100.00
2022-09-14T07:31:23.489Z,100.00
2022-09-14T07:33:54.822Z,100.00
2022-09-14T07:36:22.919Z,100.00
2022-09-14T07:38:52.976Z,100.00
2022-09-14T07:41:21.299Z,100.00
2022-09-14T07:44:08.668Z,100.00
2022-09-14T07:46:41.377Z,100.00
2022-09-14T07:49:09.485Z,100.00
2022-09-14T07:51:37.461Z,100.00
2022-09-14T07:54:06.159Z,100.00
2022-09-14T07:56:34.121Z,100.00
2022-09-14T08:01:49.204Z,100.00
2022-09-14T08:04:16.005Z,100.00
2022-09-14T08:06:42.847Z,100.00
2022-09-14T08:09:09.752Z,100.00
2022-09-14T08:11:37.088Z,100.00
2022-09-14T08:14:10.197Z,100.00
2022-09-14T08:16:41.455Z,100.00
2022-09-14T08:19:13.130Z,100.00
2022-09-14T08:21:44.132Z,100.00
2022-09-14T08:24:14.751Z,100.00
2022-09-14T08:26:41.514Z,100.00
2022-09-14T08:29:08.823Z,100.00
2022-09-14T08:31:39.328Z,100.00
2022-09-14T08:34:07.519Z,100.00
2022-09-14T08:36:36.983Z,100.00
2022-09-14T08:39:06.198Z,100.00
2022-09-14T08:41:43.566Z,100.00
2022-09-14T08:44:39.752Z,100.00
2022-09-14T08:47:12.850Z,100.00
2022-09-14T08:49:45.918Z,100.00
2022-09-14T08:52:53.764Z,100.00
2022-09-14T08:55:23.599Z,100.00
2022-09-14T08:58:02.179Z,100.00
2022-09-14T09:00:51.975Z,100.00
2022-09-14T09:03:37.536Z,100.00
2022-09-14T09:06:48.859Z,100.00
2022-09-14T09:09:48.150Z,100.00
2022-09-14T09:12:21.555Z,100.00
2022-09-14T09:15:00.799Z,100.00
2022-09-14T09:17:36.007Z,100.00
2022-09-14T09:20:15.871Z,100.00
2022-09-14T09:22:47.749Z,100.00
2022-09-14T09:25:24.615Z,100.00
2022-09-14T09:27:57.071Z,100.00
2022-09-14T09:30:23.909Z,100.00
2022-09-14T09:32:50.819Z,100.00
2022-09-14T09:35:37.239Z,100.00
2022-09-14T09:38:30.289Z,100.00
2022-09-14T09:41:00.992Z,100.00
2022-09-14T09:43:48.512Z,100.00
2022-09-14T09:46:15.294Z,100.00
2022-09-14T09:48:44.971Z,100.00
2022-09-14T09:51:24.292Z,100.00
2022-09-14T09:53:55.993Z,100.00
2022-09-14T09:56:38.527Z,100.00
2022-09-14T09:59:32.809Z,100.00
2022-09-14T10:02:30.129Z,100.00
2022-09-14T10:05:09.778Z,100.00
2022-09-14T10:07:37.853Z,100.00
2022-09-14T10:10:08.344Z,100.00
2022-09-14T10:12:37.643Z,100.00
2022-09-14T10:15:18.904Z,100.00
2022-09-14T10:18:12.630Z,100.00
2022-09-14T10:20:43.264Z,100.00
2022-09-14T10:23:33.922Z,100.00
2022-09-14T10:26:18.183Z,100.00
2022-09-14T10:28:47.940Z,100.00
2022-09-14T10:31:15.433Z,100.00
2022-09-14T10:33:42.818Z,100.00
2022-09-14T10:36:18.027Z,100.00
2022-09-14T10:39:08.403Z,100.00
2022-09-14T10:41:46.323Z,100.00
2022-09-14T10:44:31.871Z,100.00
2022-09-14T10:47:19.831Z,100.00
2022-09-14T10:50:30.251Z,100.00
2022-09-14T10:52:57.001Z,100.00
2022-09-14T10:55:43.804Z,100.00
2022-09-14T10:58:44.173Z,100.00
2022-09-14T11:01:37.988Z,100.00
2022-09-14T11:04:30.534Z,100.00
2022-09-14T11:07:06.479Z,100.00
2022-09-14T11:09:45.602Z,100.00
2022-09-14T11:12:21.036Z,100.00
2022-09-14T11:15:19.169Z,100.00
2022-09-14T11:18:30.393Z,100.00
2022-09-14T11:20:59.896Z,100.00
2022-09-14T11:23:39.991Z,100.00
2022-09-14T11:26:15.885Z,100.00
2022-09-14T11:28:51.949Z,100.00
2022-09-14T11:31:59.029Z,100.00
2022-09-14T11:34:40.721Z,100.00
2022-09-14T11:37:12.911Z,100.00
2022-09-14T11:39:47.944Z,100.00
2022-09-14T11:42:24.666Z,100.00
2022-09-14T11:45:03.309Z,100.00
2022-09-14T11:47:37.532Z,100.00
2022-09-14T11:50:19.283Z,97.92
2022-09-14T11:52:48.596Z,99.04
2022-09-14T11:55:18.689Z,100.00
2022-09-14T11:57:47.079Z,100.00
2022-09-14T12:00:20.083Z,100.00
2022-09-14T12:02:58.012Z,100.00
2022-09-14T12:05:31.776Z,100.00
2022-09-14T12:08:04.504Z,100.00
2022-09-14T12:10:31.641Z,100.00
2022-09-14T12:13:20.022Z,100.00
2022-09-14T12:15:46.938Z,100.00
2022-09-14T12:18:23.412Z,100.00
2022-09-14T12:21:01.726Z,100.00
2022-09-14T12:23:37.587Z,100.00
2022-09-14T12:26:10.529Z,100.00
2022-09-14T12:28:43.576Z,100.00
2022-09-14T12:31:14.056Z,100.00
2022-09-14T12:33:42.846Z,100.00
2022-09-14T12:36:11.661Z,100.00
2022-09-14T12:38:38.454Z,100.00
2022-09-14T12:41:08.186Z,100.00
2022-09-14T12:43:34.929Z,100.00
2022-09-14T12:46:09.212Z,100.00
2022-09-14T12:48:53.106Z,100.00
2022-09-14T12:51:32.456Z,100.00
2022-09-14T12:54:00.317Z,100.00
2022-09-14T12:56:41.008Z,100.00
2022-09-14T12:59:38.116Z,100.00
2022-09-14T13:02:26.847Z,100.00
2022-09-14T13:04:59.318Z,100.00
2022-09-14T13:07:32.979Z,100.00
2022-09-14T13:10:01.830Z,100.00
2022-09-14T13:12:36.318Z,100.00
2022-09-14T13:15:07.160Z,100.00
2022-09-14T13:17:34.103Z,100.00
2022-09-14T13:20:05.513Z,100.00
2022-09-14T13:22:33.900Z,100.00
2022-09-14T13:25:04.190Z,100.00
2022-09-14T13:27:33.962Z,100.00
2022-09-14T13:30:04.522Z,100.00
2022-09-14T13:32:34.361Z,100.00
2022-09-14T13:35:05.007Z,100.00
2022-09-14T13:37:32.071Z,100.00
2022-09-14T13:39:59.711Z,100.00
2022-09-14T13:42:27.349Z,100.00
2022-09-14T13:44:54.493Z,100.00
2022-09-14T13:47:25.378Z,99.82
2022-09-14T13:49:54.277Z,98.53
2022-09-14T13:52:34.043Z,97.27
2022-09-14T13:55:20.266Z,100.00
2022-09-14T13:58:08.991Z,96.38
2022-09-14T14:01:03.995Z,96.21
2022-09-14T14:03:41.561Z,98.38
2022-09-14T14:06:37.839Z,97.19
2022-09-14T14:09:10.149Z,100.00
2022-09-14T14:11:43.552Z,100.00
2022-09-14T14:14:16.374Z,100.00
2022-09-14T14:17:36.753Z,100.00
2022-09-14T14:20:27.975Z,99.66
2022-09-14T14:23:10.597Z,100.00
2022-09-14T14:25:47.638Z,100.00
2022-09-14T14:28:30.252Z,98.84
2022-09-14T14:30:58.507Z,96.36
2022-09-14T14:33:25.945Z,99.69
2022-09-14T14:35:56.342Z,100.00
2022-09-14T14:38:25.006Z,100.00
2022-09-14T14:40:58.369Z,100.00
2022-09-14T14:43:26.779Z,100.00
2022-09-14T14:45:59.528Z,100.00
2022-09-14T14:48:28.142Z,99.65
2022-09-14T14:50:55.715Z,99.14
2022-09-14T14:53:23.906Z,100.00
2022-09-14T14:55:50.963Z,95.44
2022-09-14T14:58:19.898Z,92.76
2022-09-14T15:00:47.583Z,94.14
2022-09-14T15:03:15.813Z,97.87
2022-09-14T15:05:43.884Z,93.59
2022-09-14T15:08:16.183Z,96.04
2022-09-14T15:10:43.004Z,99.67
2022-09-14T15:13:12.016Z,98.73
2022-09-14T15:15:42.840Z,100.00
2022-09-14T15:18:09.833Z,100.00
2022-09-14T15:20:37.011Z,100.00
2022-09-14T15:23:04.360Z,98.69
2022-09-14T15:25:31.658Z,97.14
2022-09-14T15:27:58.588Z,98.43
2022-09-14T15:30:25.481Z,100.00
2022-09-14T15:32:52.323Z,100.00
2022-09-14T15:35:19.206Z,100.00
2022-09-14T15:37:46.926Z,100.00
2022-09-14T15:40:13.860Z,100.00
2022-09-14T15:42:40.967Z,100.00
2022-09-14T15:45:08.925Z,100.00
2022-09-14T15:47:36.747Z,100.00
2022-09-14T15:50:05.991Z,100.00
2022-09-14T15:52:36.142Z,100.00
2022-09-14T15:55:07.910Z,100.00
2022-09-14T15:57:35.447Z,100.00
2022-09-14T16:00:05.342Z,100.00
2022-09-14T16:02:40.348Z,100.00
2022-09-14T16:05:07.620Z,100.00
2022-09-14T16:07:34.480Z,100.00
2022-09-14T16:10:01.282Z,100.00
2022-09-14T16:12:28.184Z,100.00
2022-09-14T16:14:54.942Z,100.00
2022-09-14T16:17:21.732Z,100.00
2022-09-14T16:19:49.254Z,100.00
2022-09-14T16:22:16.053Z,100.00
2022-09-14T16:24:42.848Z,100.00
2022-09-14T16:27:09.684Z,100.00
2022-09-14T16:29:36.529Z,100.00
2022-09-14T16:32:03.477Z,100.00
2022-09-14T16:34:31.339Z,100.00
2022-09-14T16:36:58.835Z,100.00
2022-09-14T16:39:29.576Z,100.00
2022-09-14T16:41:57.451Z,100.00
2022-09-14T16:44:26.079Z,100.00
2022-09-14T16:46:54.731Z,100.00
2022-09-14T16:49:27.073Z,100.00
2022-09-14T16:51:54.781Z,100.00
2022-09-14T16:54:23.139Z,100.00
2022-09-14T16:56:50.686Z,100.00
2022-09-14T16:59:17.982Z,100.00
2022-09-14T17:01:49.702Z,100.00
2022-09-14T17:04:23.642Z,100.00
2022-09-14T17:06:51.730Z,100.00
2022-09-14T17:09:25.491Z,100.00
2022-09-14T17:11:54.102Z,100.00
2022-09-14T17:14:23.930Z,100.00
2022-09-14T17:16:50.968Z,100.00
2022-09-14T17:19:18.255Z,100.00
2022-09-14T17:21:46.797Z,100.00
2022-09-14T17:24:15.298Z,100.00
2022-09-14T17:26:42.870Z,100.00
2022-09-14T17:29:10.657Z,100.00
2022-09-14T17:31:40.609Z,100.00
2022-09-14T17:34:09.481Z,100.00
2022-09-14T17:36:36.361Z,100.00
2022-09-14T17:39:09.247Z,100.00
2022-09-14T17:41:39.051Z,100.00
2022-09-14T17:44:07.520Z,100.00
2022-09-14T17:46:37.377Z,100.00
2022-09-14T17:49:08.001Z,100.00
2022-09-14T17:51:37.187Z,100.00
2022-09-14T17:54:04.406Z,100.00
2022-09-14T17:56:31.923Z,100.00
2022-09-14T17:59:05.683Z,100.00
2022-09-14T18:01:33.484Z,100.00
2022-09-14T18:04:05.038Z,100.00
2022-09-14T18:06:35.630Z,100.00
2022-09-14T18:09:05.877Z,100.00
2022-09-14T18:11:32.874Z,100.00
2022-09-14T18:14:00.073Z,100.00
2022-09-14T18:16:27.852Z,100.00
2022-09-14T18:18:57.568Z,100.00
2022-09-14T18:21:25.860Z,100.00
2022-09-14T18:23:54.519Z,100.00
2022-09-14T18:26:22.613Z,100.00
2022-09-14T18:28:51.087Z,100.00
2022-09-14T18:31:19.556Z,100.00
2022-09-14T18:33:52.862Z,100.00
2022-09-14T18:36:21.076Z,100.00
2022-09-14T18:38:48.759Z,100.00
2022-09-14T18:41:17.312Z,100.00
2022-09-14T18:43:49.891Z,100.00
2022-09-14T18:46:18.750Z,100.00
2022-09-14T18:48:46.692Z,100.00
2022-09-14T18:51:14.428Z,100.00
2022-09-14T18:53:42.431Z,100.00
2022-09-14T18:56:16.195Z,100.00
2022-09-14T18:58:46.662Z,100.00
2022-09-14T19:01:14.537Z,100.00
2022-09-14T19:03:42.783Z,100.00
2022-09-14T19:06:12.851Z,100.00
2022-09-14T19:08:40.761Z,100.00
2022-09-14T19:11:10.772Z,100.00
2022-09-14T19:13:37.931Z,100.00
2022-09-14T19:16:16.008Z,100.00
2022-09-14T19:18:43.935Z,100.00
2022-09-14T19:21:23.382Z,100.00
2022-09-14T19:24:06.891Z,100.00
2022-09-14T19:26:43.976Z,100.00
2022-09-14T19:29:12.667Z,100.00
2022-09-14T19:31:39.664Z,100.00
2022-09-14T19:34:06.929Z,100.00
2022-09-14T19:36:37.617Z,100.00
2022-09-14T19:39:04.928Z,100.00
2022-09-14T19:41:33.186Z,100.00
2022-09-14T19:44:00.952Z,100.00
2022-09-14T19:46:28.579Z,100.00
2022-09-14T19:48:55.627Z,100.00
2022-09-14T19:51:27.914Z,100.00
2022-09-14T19:53:59.493Z,100.00
2022-09-14T19:56:29.289Z,100.00
2022-09-14T19:58:58.609Z,100.00
2022-09-14T20:01:27.749Z,100.00
2022-09-14T20:03:54.884Z,100.00
2022-09-14T20:06:25.946Z,100.00
2022-09-14T20:08:56.355Z,100.00
2022-09-14T20:11:25.283Z,100.00
2022-09-14T20:14:00.445Z,100.00
2022-09-14T20:16:36.021Z,100.00
2022-09-14T20:19:10.226Z,100.00
2022-09-14T20:21:38.817Z,100.00
2022-09-14T20:24:22.222Z,100.00
2022-09-14T20:26:50.543Z,100.00
2022-09-14T20:29:19.675Z,100.00
2022-09-14T20:31:47.469Z,100.00
2022-09-14T20:34:16.377Z,100.00
2022-09-14T20:36:43.838Z,100.00
2022-09-14T20:39:10.944Z,100.00
2022-09-14T20:41:37.885Z,100.00
2022-09-14T20:44:05.000Z,100.00
2022-09-14T20:46:36.441Z,100.00
2022-09-14T20:49:05.675Z,100.00
2022-09-14T20:51:32.591Z,100.00
2022-09-14T20:53:59.573Z,100.00
2022-09-14T20:56:28.610Z,100.00
2022-09-14T20:58:58.721Z,100.00
2022-09-14T21:01:28.607Z,100.00
2022-09-14T21:03:56.070Z,100.00
2022-09-14T21:06:25.537Z,100.00
2022-09-14T21:08:52.840Z,100.00
2022-09-14T21:11:24.425Z,100.00
2022-09-14T21:13:53.937Z,100.00
2022-09-14T21:16:29.177Z,100.00
2022-09-14T21:19:04.252Z,100.00
2022-09-14T21:21:31.675Z,100.00
2022-09-14T21:23:59.711Z,100.00
2022-09-14T21:26:28.947Z,100.00
2022-09-14T21:28:58.115Z,100.00
2022-09-14T21:31:26.747Z,100.00
2022-09-14T21:33:55.792Z,100.00
2022-09-14T21:36:27.187Z,100.00
2022-09-14T21:38:56.850Z,100.00
2022-09-14T21:41:25.347Z,100.00
2022-09-14T21:43:52.479Z,100.00
2022-09-14T21:46:19.998Z,100.00
2022-09-14T21:48:47.000Z,100.00
2022-09-14T21:51:18.458Z,100.00
2022-09-14T21:53:47.667Z,100.00
2022-09-14T21:56:16.280Z,100.00
2022-09-14T21:58:44.048Z,100.00
2022-09-14T22:01:12.111Z,100.00
2022-09-14T22:03:40.021Z,100.00
2022-09-14T22:06:10.631Z,100.00
2022-09-14T22:08:37.737Z,100.00
2022-09-14T22:11:13.662Z,100.00
2022-09-14T22:13:40.812Z,100.00
2022-09-14T22:16:09.605Z,100.00
2022-09-14T22:18:38.052Z,100.00
2022-09-14T22:21:05.717Z,100.00
2022-09-14T22:23:34.049Z,100.00
2022-09-14T22:26:07.276Z,100.00
2022-09-14T22:28:34.313Z,100.00
2022-09-14T22:31:01.227Z,100.00
2022-09-14T22:33:28.977Z,100.00
2022-09-14T22:35:58.501Z,100.00
2022-09-14T22:38:27.114Z,100.00
2022-09-14T22:40:56.013Z,100.00
2022-09-14T22:43:23.437Z,100.00
2022-09-14T22:45:50.590Z,100.00
2022-09-14T22:48:17.884Z,100.00
2022-09-14T22:50:46.325Z,100.00
2022-09-14T22:53:13.438Z,100.00
2022-09-14T22:55:41.674Z,100.00
2022-09-14T22:58:09.541Z,100.00
2022-09-14T23:00:38.842Z,100.00
2022-09-14T23:03:10.697Z,100.00
2022-09-14T23:05:39.164Z,100.00
2022-09-14T23:08:07.560Z,100.00
2022-09-14T23:10:38.123Z,100.00
2022-09-14T23:13:04.927Z,100.00
2022-09-14T23:15:31.787Z,100.00
2022-09-14T23:17:58.525Z,100.00
2022-09-14T23:20:25.277Z,100.00
2022-09-14T23:22:52.045Z,100.00
2022-09-14T23:25:18.849Z,100.00
2022-09-14T23:27:45.610Z,100.00
2022-09-14T23:30:13.039Z,100.00
2022-09-14T23:32:39.800Z,100.00
2022-09-14T23:35:07.366Z,100.00
2022-09-14T23:37:34.198Z,100.00
2022-09-14T23:40:01.120Z,100.00
2022-09-14T23:42:28.192Z,100.00
2022-09-14T23:44:55.010Z,100.00
2022-09-14T23:47:21.752Z,100.00
2022-09-14T23:49:48.531Z,100.00
2022-09-14T23:52:15.302Z,100.00
2022-09-14T23:54:42.835Z,100.00
2022-09-14T23:57:09.596Z,100.00
2022-09-14T23:59:36.447Z,100.00
